KFAF/FAF METAR and TAF weather

Enter ICAO airport designator
Station Type Date Time Source
KFAF METAR 2019/02/20 23:21 UTC NOAA

KFAF 202321Z 00000KT 5SM BR OVC005 07/06 A3014 RMK AO2A DZE2256DZB09E21 SLP210 $


Station Type Date Time Source
KFAF Decoded METAR 2019/02/20 23:21 UTC NOAA

Fort Eustis / Felker, VA, United States (KFAF) 37-08N 076-37W
Feb 20, 2019 - 06:21 PM EST / 2019.02.20 2321 UTC
Wind: Calm:0
Visibility: 5 mile(s):0
Sky conditions: overcast
Weather: mist
Temperature: 44 F (7 C)
Dew Point: 42 F (6 C)
Relative Humidity: 93%
Pressure (altimeter): 30.14 in. Hg (1020 hPa)
ob: KFAF 202321Z 00000KT 5SM BR OVC005 07/06 A3014 RMK AO2A DZE2256DZB09E21 SLP210
cycle: 23

Station Type Date Time Source
KFAF TAF 2019/02/20 19:21 UTC NOAA

TAF KFAF 201900Z 2019/2201 09012KT 4800 -RA BR OVC007 QNH3041INS
TEMPO 2019/2023 3200 RA
BECMG 2022/2023 10009KT 4800 -RA BR OVC005 QNH3000INS
BECMG 2103/2104 24009KT 4800 -RA OVC005 QNH2995INS
BECMG 2112/2113 24009KT 4800 -RA OVC010 QNH3001INS
BECMG 2115/2116 27009KT 8000 -RA OVC020 QNH3000INS TX15/2119Z TN04/2019Z LAST NO
AMDS AFT 2104 NEXT 2111


Example: see airport list